Aviation Digital Data Service (ADDS)

Output produced by METARs form (0605 UTC 16 February 2019)
found at http://www.aviationweather.gov/metar/data/
 
METAR text: OITL 160600Z 08010KT 8000 VCFG FEW004 SCT030 OVC070 M02/M02 Q1012
Conditions at: OITL (ARDABIL , IR) observed 0600 UTC 16 February 2019
Temperature: -2.0°C (28°F)
Dewpoint: -2.0°C (28°F) [RH = 100%]
Pressure (altimeter): 29.88 inches Hg (1012.0 mb)
Winds: from the E (80 degrees) at 12 MPH (10 knots; 5.1 m/s)
Visibility: 5 miles ( 8 km)
Ceiling: 7000 feet AGL
Clouds: few clouds at 400 feet AGL
scattered clouds at 3000 feet AGL
overcast cloud deck at 7000 feet AGL
Weather: VCFG  (fog in vicinity)

METAR text: OITL 160500Z 06012KT 7000 PRFG BKN003 BKN025 OVC060 M03/M03 Q1011
Conditions at: OITL (ARDABIL , IR) observed 0500 UTC 16 February 2019
Temperature: -3.0°C (27°F)
Dewpoint: -3.0°C (27°F) [RH = 100%]
Pressure (altimeter): 29.85 inches Hg (1011.0 mb)
Winds: from the ENE (60 degrees) at 14 MPH (12 knots; 6.2 m/s)
Visibility: 4 miles ( 7 km)
Ceiling: 300 feet AGL
Clouds: broken clouds at 300 feet AGL
broken clouds at 2500 feet AGL
overcast cloud deck at 6000 feet AGL
Weather: PRFG  (partial fog)

METAR text: OITL 160451Z 06012KT 7000 PRFG BKN003 BKN025 OVC060 M03/M03 Q1011
Conditions at: OITL (ARDABIL , IR) observed 0451 UTC 16 February 2019
Temperature: -3.0°C (27°F)
Dewpoint: -3.0°C (27°F) [RH = 100%]
Pressure (altimeter): 29.85 inches Hg (1011.0 mb)
Winds: from the ENE (60 degrees) at 14 MPH (12 knots; 6.2 m/s)
Visibility: 4 miles ( 7 km)
Ceiling: 300 feet AGL
Clouds: broken clouds at 300 feet AGL
broken clouds at 2500 feet AGL
overcast cloud deck at 6000 feet AGL
Weather: PRFG  (partial fog)

METAR text: OITL 160400Z 07012KT 5000 BR BKN003 BKN025 OVC060 M03/M03 Q1010
Conditions at: OITL (ARDABIL , IR) observed 0400 UTC 16 February 2019
Temperature: -3.0°C (27°F)
Dewpoint: -3.0°C (27°F) [RH = 100%]
Pressure (altimeter): 29.82 inches Hg (1010.0 mb)
Winds: from the ENE (70 degrees) at 14 MPH (12 knots; 6.2 m/s)
Visibility: 3 miles ( 5 km)
Ceiling: 300 feet AGL
Clouds: broken clouds at 300 feet AGL
broken clouds at 2500 feet AGL
overcast cloud deck at 6000 feet AGL
Weather: BR  (mist)

METAR text: OITL 160351Z 07012KT 5000 BR BKN003 BKN025 OVC060 M03/M03 Q1010
Conditions at: OITL (ARDABIL , IR) observed 0351 UTC 16 February 2019
Temperature: -3.0°C (27°F)
Dewpoint: -3.0°C (27°F) [RH = 100%]
Pressure (altimeter): 29.82 inches Hg (1010.0 mb)
Winds: from the ENE (70 degrees) at 14 MPH (12 knots; 6.2 m/s)
Visibility: 3 miles ( 5 km)
Ceiling: 300 feet AGL
Clouds: broken clouds at 300 feet AGL
broken clouds at 2500 feet AGL
overcast cloud deck at 6000 feet AGL
Weather: BR  (mist)

METAR text: OITL 160300Z 07012KT 3000 SN BKN003 BKN025 OVC060 M02/M03 Q1010
Conditions at: OITL (ARDABIL , IR) observed 0300 UTC 16 February 2019
Temperature: -2.0°C (28°F)
Dewpoint: -3.0°C (27°F) [RH = 93%]
Pressure (altimeter): 29.82 inches Hg (1010.0 mb)
Winds: from the ENE (70 degrees) at 14 MPH (12 knots; 6.2 m/s)
Visibility: 1.86 miles (2.99 km)
Ceiling: 300 feet AGL
Clouds: broken clouds at 300 feet AGL
broken clouds at 2500 feet AGL
overcast cloud deck at 6000 feet AGL
Weather: SN  (moderate snow)

METAR text: OITL 160252Z 07012KT 3000 SN BKN003 BKN025 OVC060 M02/M03 Q1010
Conditions at: OITL (ARDABIL , IR) observed 0252 UTC 16 February 2019
Temperature: -2.0°C (28°F)
Dewpoint: -3.0°C (27°F) [RH = 93%]
Pressure (altimeter): 29.82 inches Hg (1010.0 mb)
Winds: from the ENE (70 degrees) at 14 MPH (12 knots; 6.2 m/s)
Visibility: 1.86 miles (2.99 km)
Ceiling: 300 feet AGL
Clouds: broken clouds at 300 feet AGL
broken clouds at 2500 feet AGL
overcast cloud deck at 6000 feet AGL
Weather: SN  (moderate snow)

METAR text: OITL 160151Z 08016KT 3000 SN BKN003 BKN025 OVC060 M02/M03 Q1010
Conditions at: OITL (ARDABIL , IR) observed 0151 UTC 16 February 2019
Temperature: -2.0°C (28°F)
Dewpoint: -3.0°C (27°F) [RH = 93%]
Pressure (altimeter): 29.82 inches Hg (1010.0 mb)
Winds: from the E (80 degrees) at 18 MPH (16 knots; 8.2 m/s)
Visibility: 1.86 miles (2.99 km)
Ceiling: 300 feet AGL
Clouds: broken clouds at 300 feet AGL
broken clouds at 2500 feet AGL
overcast cloud deck at 6000 feet AGL
Weather: SN  (moderate snow)

METAR text: OITL 160050Z 05010KT 4000 SN BKN003 BKN025 OVC060 M02/M02 Q1010
Conditions at: OITL (ARDABIL , IR) observed 0050 UTC 16 February 2019
Temperature: -2.0°C (28°F)
Dewpoint: -2.0°C (28°F) [RH = 100%]
Pressure (altimeter): 29.82 inches Hg (1010.0 mb)
Winds: from the NE (50 degrees) at 12 MPH (10 knots; 5.1 m/s)
Visibility: 2.49 miles (4.01 km)
Ceiling: 300 feet AGL
Clouds: broken clouds at 300 feet AGL
broken clouds at 2500 feet AGL
overcast cloud deck at 6000 feet AGL
Weather: SN  (moderate snow)

METAR text: OITL 152351Z 07014KT 4000 SN BKN003 BKN025 OVC060 M02/M03 Q1010
Conditions at: OITL (ARDABIL , IR) observed 2351 UTC 15 February 2019
Temperature: -2.0°C (28°F)
Dewpoint: -3.0°C (27°F) [RH = 93%]
Pressure (altimeter): 29.82 inches Hg (1010.0 mb)
Winds: from the ENE (70 degrees) at 16 MPH (14 knots; 7.2 m/s)
Visibility: 2.49 miles (4.01 km)
Ceiling: 300 feet AGL
Clouds: broken clouds at 300 feet AGL
broken clouds at 2500 feet AGL
overcast cloud deck at 6000 feet AGL
Weather: SN  (moderate snow)

METAR text: OITL 152251Z 06014KT 3000 SN BKN003 BKN025 OVC060 M02/M02 Q1011
Conditions at: OITL (ARDABIL , IR) observed 2251 UTC 15 February 2019
Temperature: -2.0°C (28°F)
Dewpoint: -2.0°C (28°F) [RH = 100%]
Pressure (altimeter): 29.85 inches Hg (1011.0 mb)
Winds: from the ENE (60 degrees) at 16 MPH (14 knots; 7.2 m/s)
Visibility: 1.86 miles (2.99 km)
Ceiling: 300 feet AGL
Clouds: broken clouds at 300 feet AGL
broken clouds at 2500 feet AGL
overcast cloud deck at 6000 feet AGL
Weather: SN  (moderate snow)

METAR text: OITL 152153Z 06016KT 3000 SN BKN003 BKN025 OVC060 M02/M02 Q1010
Conditions at: OITL (ARDABIL , IR) observed 2153 UTC 15 February 2019
Temperature: -2.0°C (28°F)
Dewpoint: -2.0°C (28°F) [RH = 100%]
Pressure (altimeter): 29.82 inches Hg (1010.0 mb)
Winds: from the ENE (60 degrees) at 18 MPH (16 knots; 8.2 m/s)
Visibility: 1.86 miles (2.99 km)
Ceiling: 300 feet AGL
Clouds: broken clouds at 300 feet AGL
broken clouds at 2500 feet AGL
overcast cloud deck at 6000 feet AGL
Weather: SN  (moderate snow)

METAR text: OITL 152052Z 07016KT 0900 R15/1400D R33/1100D +SN BKN003 BKN025 OVC060 M01/M02 Q1011
Conditions at: OITL (ARDABIL , IR) observed 2052 UTC 15 February 2019
Temperature: -1.0°C (30°F)
Dewpoint: -2.0°C (28°F) [RH = 93%]
Pressure (altimeter): 29.85 inches Hg (1011.0 mb)
Winds: from the ENE (70 degrees) at 18 MPH (16 knots; 8.2 m/s)
Visibility: 0.56 miles (0.90 km)
Ceiling: 300 feet AGL
Clouds: broken clouds at 300 feet AGL
broken clouds at 2500 feet AGL
overcast cloud deck at 6000 feet AGL
Weather: +SN  (heavy snow)

METAR text: OITL 151952Z 05016KT 0900 R15/1300D R33/P2000N +SN BKN003 BKN025 OVC060 M01/M01 Q1011
Conditions at: OITL (ARDABIL , IR) observed 1952 UTC 15 February 2019
Temperature: -1.0°C (30°F)
Dewpoint: -1.0°C (30°F) [RH = 100%]
Pressure (altimeter): 29.85 inches Hg (1011.0 mb)
Winds: from the NE (50 degrees) at 18 MPH (16 knots; 8.2 m/s)
Visibility: 0.56 miles (0.90 km)
Ceiling: 300 feet AGL
Clouds: broken clouds at 300 feet AGL
broken clouds at 2500 feet AGL
overcast cloud deck at 6000 feet AGL
Weather: +SN  (heavy snow)

METAR text: OITL 151852Z 03016KT 1000 R15/1400D R33/P2000N +SN BKN003 BKN025 OVC060 M00/M01 Q1012
Conditions at: OITL (ARDABIL , IR) observed 1852 UTC 15 February 2019
Temperature: 0.0°C (32°F)
Dewpoint: -1.0°C (30°F) [RH = 93%]
Pressure (altimeter): 29.88 inches Hg (1012.0 mb)
Winds: from the NNE (30 degrees) at 18 MPH (16 knots; 8.2 m/s)
Visibility: 0.62 miles (1.00 km)
Ceiling: 300 feet AGL
Clouds: broken clouds at 300 feet AGL
broken clouds at 2500 feet AGL
overcast cloud deck at 6000 feet AGL
Weather: +SN  (heavy snow)

METAR text: OITL 151751Z 03017KT 5000 SN BKN003 BKN025 OVC060 M00/M01 Q1012
Conditions at: OITL (ARDABIL , IR) observed 1751 UTC 15 February 2019
Temperature: 0.0°C (32°F)
Dewpoint: -1.0°C (30°F) [RH = 93%]
Pressure (altimeter): 29.88 inches Hg (1012.0 mb)
Winds: from the NNE (30 degrees) at 20 MPH (17 knots; 8.7 m/s)
Visibility: 3 miles ( 5 km)
Ceiling: 300 feet AGL
Clouds: broken clouds at 300 feet AGL
broken clouds at 2500 feet AGL
overcast cloud deck at 6000 feet AGL
Weather: SN  (moderate snow)

METAR text: OITL 151653Z 06019KT 5000 SN BKN003 BKN025 OVC060 M00/M00 Q1012
Conditions at: OITL (ARDABIL , IR) observed 1653 UTC 15 February 2019
Temperature: 0.0°C (32°F)
Dewpoint: 0.0°C (32°F) [RH = 100%]
Pressure (altimeter): 29.88 inches Hg (1012.0 mb)
Winds: from the ENE (60 degrees) at 22 MPH (19 knots; 9.8 m/s)
Visibility: 3 miles ( 5 km)
Ceiling: 300 feet AGL
Clouds: broken clouds at 300 feet AGL
broken clouds at 2500 feet AGL
overcast cloud deck at 6000 feet AGL
Weather: SN  (moderate snow)

METAR text: OITL 151551Z 07017KT 7000 -SN BKN003 BKN020 OVC070 00/M00 Q1012 RERA
Conditions at: OITL (ARDABIL , IR) observed 1551 UTC 15 February 2019
Temperature: 0.0°C (32°F)
Dewpoint: 0.0°C (32°F) [RH = 100%]
Pressure (altimeter): 29.88 inches Hg (1012.0 mb)
Winds: from the ENE (70 degrees) at 20 MPH (17 knots; 8.7 m/s)
Visibility: 4 miles ( 7 km)
Ceiling: 300 feet AGL
Clouds: broken clouds at 300 feet AGL
broken clouds at 2000 feet AGL
overcast cloud deck at 7000 feet AGL
Weather: -SN  (light snow)

METAR text: OITL 151400Z 06019KT 2000 -SHRA BR PRFG BKN002 SCT040CB 01/00 Q1011 REFG
Conditions at: OITL (ARDABIL , IR) observed 1400 UTC 15 February 2019
Temperature: 1.0°C (34°F)
Dewpoint: 0.0°C (32°F) [RH = 93%]
Pressure (altimeter): 29.85 inches Hg (1011.0 mb)
Winds: from the ENE (60 degrees) at 22 MPH (19 knots; 9.8 m/s)
Visibility: 1.24 miles (2.00 km)
Ceiling: 200 feet AGL
Clouds: broken clouds at 200 feet AGL
scattered clouds at 4000 feet AGL
Weather: -SHRA BR PRFG  (light rain showers, mist, partial fog)

METAR text: OITL 151300Z 07021KT 0100 R15/0600N R33/0700U -SHRA FG BKN002 SCT040CB 01/01 Q1011
Conditions at: OITL (ARDABIL , IR) observed 1300 UTC 15 February 2019
Temperature: 1.0°C (34°F)
Dewpoint: 1.0°C (34°F) [RH = 100%]
Pressure (altimeter): 29.85 inches Hg (1011.0 mb)
Winds: from the ENE (70 degrees) at 24 MPH (21 knots; 10.8 m/s)
Visibility: 0.06 miles (0.10 km)
Ceiling: 200 feet AGL
Clouds: broken clouds at 200 feet AGL
scattered clouds at 4000 feet AGL
Weather: -SHRA FG  (light rain showers, fog)

METAR text: OITL 151252Z 07021KT 0100 R15/0600N R33/0700U -SHRA FG BKN002 SCT040CB 01/01 Q1011
Conditions at: OITL (ARDABIL , IR) observed 1252 UTC 15 February 2019
Temperature: 1.0°C (34°F)
Dewpoint: 1.0°C (34°F) [RH = 100%]
Pressure (altimeter): 29.85 inches Hg (1011.0 mb)
Winds: from the ENE (70 degrees) at 24 MPH (21 knots; 10.8 m/s)
Visibility: 0.06 miles (0.10 km)
Ceiling: 200 feet AGL
Clouds: broken clouds at 200 feet AGL
scattered clouds at 4000 feet AGL
Weather: -SHRA FG  (light rain showers, fog)

METAR text: OITL 151200Z 07016KT 0200 R15/0900D R33/P2000N FG OVC002 02/01 Q1011
Conditions at: OITL (ARDABIL , IR) observed 1200 UTC 15 February 2019
Temperature: 2.0°C (36°F)
Dewpoint: 1.0°C (34°F) [RH = 93%]
Pressure (altimeter): 29.85 inches Hg (1011.0 mb)
Winds: from the ENE (70 degrees) at 18 MPH (16 knots; 8.2 m/s)
Visibility: 0.12 miles (0.19 km)
Ceiling: 200 feet AGL
Clouds: overcast cloud deck at 200 feet AGL
Weather: FG  (fog)

METAR text: OITL 151153Z 07016KT 0200 R15/0900D R33/P2000N FG OVC002 02/01 Q1011
Conditions at: OITL (ARDABIL , IR) observed 1153 UTC 15 February 2019
Temperature: 2.0°C (36°F)
Dewpoint: 1.0°C (34°F) [RH = 93%]
Pressure (altimeter): 29.85 inches Hg (1011.0 mb)
Winds: from the ENE (70 degrees) at 18 MPH (16 knots; 8.2 m/s)
Visibility: 0.12 miles (0.19 km)
Ceiling: 200 feet AGL
Clouds: overcast cloud deck at 200 feet AGL
Weather: FG  (fog)

METAR text: OITL 151100Z 07016KT 9999 4000NE PRFG FEW030 SCT040CB BKN080 03/01 Q1012
Conditions at: OITL (ARDABIL , IR) observed 1100 UTC 15 February 2019
Temperature: 3.0°C (37°F)
Dewpoint: 1.0°C (34°F) [RH = 87%]
Pressure (altimeter): 29.88 inches Hg (1012.0 mb)
Winds: from the ENE (70 degrees) at 18 MPH (16 knots; 8.2 m/s)
Visibility: 6 or more miles (10+ km)
Ceiling: 8000 feet AGL
Clouds: few clouds at 3000 feet AGL
scattered clouds at 4000 feet AGL
broken clouds at 8000 feet AGL
Weather: PRFG  (partial fog)

METAR text: OITL 151050Z 07016KT 9999 4000NE PRFG FEW030 SCT040CB BKN080 03/01 Q1012
Conditions at: OITL (ARDABIL , IR) observed 1050 UTC 15 February 2019
Temperature: 3.0°C (37°F)
Dewpoint: 1.0°C (34°F) [RH = 87%]
Pressure (altimeter): 29.88 inches Hg (1012.0 mb)
Winds: from the ENE (70 degrees) at 18 MPH (16 knots; 8.2 m/s)
Visibility: 6 or more miles (10+ km)
Ceiling: 8000 feet AGL
Clouds: few clouds at 3000 feet AGL
scattered clouds at 4000 feet AGL
broken clouds at 8000 feet AGL
Weather: PRFG  (partial fog)

METAR text: OITL 151030Z 07012KT 8000 VCFG FEW004 SCT040CB BKN080 03/02 Q1012
Conditions at: OITL (ARDABIL , IR) observed 1030 UTC 15 February 2019
Temperature: 3.0°C (37°F)
Dewpoint: 2.0°C (36°F) [RH = 93%]
Pressure (altimeter): 29.88 inches Hg (1012.0 mb)
Winds: from the ENE (70 degrees) at 14 MPH (12 knots; 6.2 m/s)
Visibility: 5 miles ( 8 km)
Ceiling: 8000 feet AGL
Clouds: few clouds at 400 feet AGL
scattered clouds at 4000 feet AGL
broken clouds at 8000 feet AGL
Weather: VCFG  (fog in vicinity)

METAR text: OITL 151000Z 18008G21KT 9999 VCFG FEW030 FEW040CB SCT090 11/M00 Q1012
Conditions at: OITL (ARDABIL , IR) observed 1000 UTC 15 February 2019
Temperature: 11.0°C (52°F)
Dewpoint: 0.0°C (32°F) [RH = 47%]
Pressure (altimeter): 29.88 inches Hg (1012.0 mb)
Winds: from the S (180 degrees) at 9 MPH (8 knots; 4.1 m/s)
gusting to 24 MPH (21 knots; 10.8 m/s)
Visibility: 6 or more miles (10+ km)
Ceiling: at least 12,000 feet AGL
Clouds: few clouds at 3000 feet AGL
few clouds at 4000 feet AGL
scattered clouds at 9000 feet AGL
Weather: VCFG  (fog in vicinity)

METAR text: OITL 150953Z 18008G21KT 9999 VCFG FEW030 FEW040CB SCT090 11/M00 Q1012
Conditions at: OITL (ARDABIL , IR) observed 0953 UTC 15 February 2019
Temperature: 11.0°C (52°F)
Dewpoint: 0.0°C (32°F) [RH = 47%]
Pressure (altimeter): 29.88 inches Hg (1012.0 mb)
Winds: from the S (180 degrees) at 9 MPH (8 knots; 4.1 m/s)
gusting to 24 MPH (21 knots; 10.8 m/s)
Visibility: 6 or more miles (10+ km)
Ceiling: at least 12,000 feet AGL
Clouds: few clouds at 3000 feet AGL
few clouds at 4000 feet AGL
scattered clouds at 9000 feet AGL
Weather: VCFG  (fog in vicinity)

METAR text: OITL 150930Z 20021KT 9999 VCFG FEW004 FEW040CB SCT200 12/00 Q1012
Conditions at: OITL (ARDABIL , IR) observed 0930 UTC 15 February 2019
Temperature: 12.0°C (54°F)
Dewpoint: 0.0°C (32°F) [RH = 44%]
Pressure (altimeter): 29.88 inches Hg (1012.0 mb)
Winds: from the SSW (200 degrees) at 24 MPH (21 knots; 10.8 m/s)
Visibility: 6 or more miles (10+ km)
Ceiling: at least 12,000 feet AGL
Clouds: few clouds at 400 feet AGL
few clouds at 4000 feet AGL
scattered clouds at 20000 feet AGL
Weather: VCFG  (fog in vicinity)

METAR text: OITL 150900Z 20021KT 9999 VCFG FEW004 FEW040CB BKN090 10/M00 Q1013
Conditions at: OITL (ARDABIL , IR) observed 0900 UTC 15 February 2019
Temperature: 10.0°C (50°F)
Dewpoint: 0.0°C (32°F) [RH = 50%]
Pressure (altimeter): 29.91 inches Hg (1013.0 mb)
Winds: from the SSW (200 degrees) at 24 MPH (21 knots; 10.8 m/s)
Visibility: 6 or more miles (10+ km)
Ceiling: 9000 feet AGL
Clouds: few clouds at 400 feet AGL
few clouds at 4000 feet AGL
broken clouds at 9000 feet AGL
Weather: VCFG  (fog in vicinity)

METAR text: OITL 150850Z 20021KT 9999 VCFG FEW004 FEW040CB BKN090 10/M00 Q1013
Conditions at: OITL (ARDABIL , IR) observed 0850 UTC 15 February 2019
Temperature: 10.0°C (50°F)
Dewpoint: 0.0°C (32°F) [RH = 50%]
Pressure (altimeter): 29.91 inches Hg (1013.0 mb)
Winds: from the SSW (200 degrees) at 24 MPH (21 knots; 10.8 m/s)
Visibility: 6 or more miles (10+ km)
Ceiling: 9000 feet AGL
Clouds: few clouds at 400 feet AGL
few clouds at 4000 feet AGL
broken clouds at 9000 feet AGL
Weather: VCFG  (fog in vicinity)

METAR text: OITL 150830Z 20023KT 9999 VCFG FEW004 FEW040CB SCT200 10/00 Q1013
Conditions at: OITL (ARDABIL , IR) observed 0830 UTC 15 February 2019
Temperature: 10.0°C (50°F)
Dewpoint: 0.0°C (32°F) [RH = 50%]
Pressure (altimeter): 29.91 inches Hg (1013.0 mb)
Winds: from the SSW (200 degrees) at 26 MPH (23 knots; 11.8 m/s)
Visibility: 6 or more miles (10+ km)
Ceiling: at least 12,000 feet AGL
Clouds: few clouds at 400 feet AGL
few clouds at 4000 feet AGL
scattered clouds at 20000 feet AGL
Weather: VCFG  (fog in vicinity)

METAR text: OITL 150800Z 20019G31KT 9999 VCFG FEW004 FEW040CB 11/01 Q1013
Conditions at: OITL (ARDABIL , IR) observed 0800 UTC 15 February 2019
Temperature: 11.0°C (52°F)
Dewpoint: 1.0°C (34°F) [RH = 50%]
Pressure (altimeter): 29.91 inches Hg (1013.0 mb)
Winds: from the SSW (200 degrees) at 22 MPH (19 knots; 9.8 m/s)
gusting to 36 MPH (31 knots; 15.9 m/s)
Visibility: 6 or more miles (10+ km)
Ceiling: at least 12,000 feet AGL
Clouds: few clouds at 400 feet AGL
few clouds at 4000 feet AGL
Weather: VCFG  (fog in vicinity)

METAR text: OITL 150751Z 20019G31KT 9999 VCFG FEW004 FEW040CB 11/01 Q1013
Conditions at: OITL (ARDABIL , IR) observed 0751 UTC 15 February 2019
Temperature: 11.0°C (52°F)
Dewpoint: 1.0°C (34°F) [RH = 50%]
Pressure (altimeter): 29.91 inches Hg (1013.0 mb)
Winds: from the SSW (200 degrees) at 22 MPH (19 knots; 9.8 m/s)
gusting to 36 MPH (31 knots; 15.9 m/s)
Visibility: 6 or more miles (10+ km)
Ceiling: at least 12,000 feet AGL
Clouds: few clouds at 400 feet AGL
few clouds at 4000 feet AGL
Weather: VCFG  (fog in vicinity)

METAR text: OITL 150730Z 20025KT 9999 VCFG FEW004 FEW040CB 11/00 Q1013
Conditions at: OITL (ARDABIL , IR) observed 0730 UTC 15 February 2019
Temperature: 11.0°C (52°F)
Dewpoint: 0.0°C (32°F) [RH = 47%]
Pressure (altimeter): 29.91 inches Hg (1013.0 mb)
Winds: from the SSW (200 degrees) at 29 MPH (25 knots; 12.9 m/s)
Visibility: 6 or more miles (10+ km)
Ceiling: at least 12,000 feet AGL
Clouds: few clouds at 400 feet AGL
few clouds at 4000 feet AGL
Weather: VCFG  (fog in vicinity)

METAR text: OITL 150700Z 20025KT 9999 FEW005 09/01 Q1013
Conditions at: OITL (ARDABIL , IR) observed 0700 UTC 15 February 2019
Temperature: 9.0°C (48°F)
Dewpoint: 1.0°C (34°F) [RH = 57%]
Pressure (altimeter): 29.91 inches Hg (1013.0 mb)
Winds: from the SSW (200 degrees) at 29 MPH (25 knots; 12.9 m/s)
Visibility: 6 or more miles (10+ km)
Ceiling: at least 12,000 feet AGL
Clouds: few clouds at 500 feet AGL
Weather: no significant weather observed at this time

METAR text: OITL 150650Z 20025KT 9999 FEW005 09/01 Q1013
Conditions at: OITL (ARDABIL , IR) observed 0650 UTC 15 February 2019
Temperature: 9.0°C (48°F)
Dewpoint: 1.0°C (34°F) [RH = 57%]
Pressure (altimeter): 29.91 inches Hg (1013.0 mb)
Winds: from the SSW (200 degrees) at 29 MPH (25 knots; 12.9 m/s)
Visibility: 6 or more miles (10+ km)
Ceiling: at least 12,000 feet AGL
Clouds: few clouds at 500 feet AGL
Weather: no significant weather observed at this time

METAR text: OITL 150630Z 21023KT 9999 FEW005 09/02 Q1013
Conditions at: OITL (ARDABIL , IR) observed 0630 UTC 15 February 2019
Temperature: 9.0°C (48°F)
Dewpoint: 2.0°C (36°F) [RH = 61%]
Pressure (altimeter): 29.91 inches Hg (1013.0 mb)
Winds: from the SSW (210 degrees) at 26 MPH (23 knots; 11.8 m/s)
Visibility: 6 or more miles (10+ km)
Ceiling: at least 12,000 feet AGL
Clouds: few clouds at 500 feet AGL
Weather: no significant weather observed at this time

METAR text: OITL 150600Z 23008KT 9999 VCFG FEW004 08/03 Q1014
Conditions at: OITL (ARDABIL , IR) observed 0600 UTC 15 February 2019
Temperature: 8.0°C (46°F)
Dewpoint: 3.0°C (37°F) [RH = 71%]
Pressure (altimeter): 29.94 inches Hg (1014.0 mb)
Winds: from the SW (230 degrees) at 9 MPH (8 knots; 4.1 m/s)
Visibility: 6 or more miles (10+ km)
Ceiling: at least 12,000 feet AGL
Clouds: few clouds at 400 feet AGL
Weather: VCFG  (fog in vicinity)

METAR text: OITL 150553Z 23008KT 9999 VCFG FEW004 08/03 Q1014
Conditions at: OITL (ARDABIL , IR) observed 0553 UTC 15 February 2019
Temperature: 8.0°C (46°F)
Dewpoint: 3.0°C (37°F) [RH = 71%]
Pressure (altimeter): 29.94 inches Hg (1014.0 mb)
Winds: from the SW (230 degrees) at 9 MPH (8 knots; 4.1 m/s)
Visibility: 6 or more miles (10+ km)
Ceiling: at least 12,000 feet AGL
Clouds: few clouds at 400 feet AGL
Weather: VCFG  (fog in vicinity)

METAR text: OITL 150500Z 10008KT 9999 FEW004 04/02 Q1014
Conditions at: OITL (ARDABIL , IR) observed 0500 UTC 15 February 2019
Temperature: 4.0°C (39°F)
Dewpoint: 2.0°C (36°F) [RH = 87%]
Pressure (altimeter): 29.94 inches Hg (1014.0 mb)
Winds: from the E (100 degrees) at 9 MPH (8 knots; 4.1 m/s)
Visibility: 6 or more miles (10+ km)
Ceiling: at least 12,000 feet AGL
Clouds: few clouds at 400 feet AGL
Weather: no significant weather observed at this time

METAR text: OITL 150452Z 10008KT 9999 FEW004 04/02 Q1014
Conditions at: OITL (ARDABIL , IR) observed 0452 UTC 15 February 2019
Temperature: 4.0°C (39°F)
Dewpoint: 2.0°C (36°F) [RH = 87%]
Pressure (altimeter): 29.94 inches Hg (1014.0 mb)
Winds: from the E (100 degrees) at 9 MPH (8 knots; 4.1 m/s)
Visibility: 6 or more miles (10+ km)
Ceiling: at least 12,000 feet AGL
Clouds: few clouds at 400 feet AGL
Weather: no significant weather observed at this time

METAR text: OITL 150400Z 14008KT 9999 FEW004 M00/M01 Q1014
Conditions at: OITL (ARDABIL , IR) observed 0400 UTC 15 February 2019
Temperature: 0.0°C (32°F)
Dewpoint: -1.0°C (30°F) [RH = 93%]
Pressure (altimeter): 29.94 inches Hg (1014.0 mb)
Winds: from the SE (140 degrees) at 9 MPH (8 knots; 4.1 m/s)
Visibility: 6 or more miles (10+ km)
Ceiling: at least 12,000 feet AGL
Clouds: few clouds at 400 feet AGL
Weather: no significant weather observed at this time

METAR text: OITL 150351Z 14008KT 9999 FEW004 M00/M01 Q1014
Conditions at: OITL (ARDABIL , IR) observed 0351 UTC 15 February 2019
Temperature: 0.0°C (32°F)
Dewpoint: -1.0°C (30°F) [RH = 93%]
Pressure (altimeter): 29.94 inches Hg (1014.0 mb)
Winds: from the SE (140 degrees) at 9 MPH (8 knots; 4.1 m/s)
Visibility: 6 or more miles (10+ km)
Ceiling: at least 12,000 feet AGL
Clouds: few clouds at 400 feet AGL
Weather: no significant weather observed at this time

METAR text: OITL 150253Z 12010KT 2000 BR FEW004 SCT030 M00/M01 Q1014
Conditions at: OITL (ARDABIL , IR) observed 0253 UTC 15 February 2019
Temperature: 0.0°C (32°F)
Dewpoint: -1.0°C (30°F) [RH = 93%]
Pressure (altimeter): 29.94 inches Hg (1014.0 mb)
Winds: from the ESE (120 degrees) at 12 MPH (10 knots; 5.1 m/s)
Visibility: 1.24 miles (2.00 km)
Ceiling: at least 12,000 feet AGL
Clouds: few clouds at 400 feet AGL
scattered clouds at 3000 feet AGL
Weather: BR  (mist)

METAR text: OITL 150152Z 11006KT 0900 R15/0900N R33/1800N FG OVC004 M00/M00 Q1014
Conditions at: OITL (ARDABIL , IR) observed 0152 UTC 15 February 2019
Temperature: 0.0°C (32°F)
Dewpoint: 0.0°C (32°F) [RH = 100%]
Pressure (altimeter): 29.94 inches Hg (1014.0 mb)
Winds: from the ESE (110 degrees) at 7 MPH (6 knots; 3.1 m/s)
Visibility: 0.56 miles (0.90 km)
Ceiling: 400 feet AGL
Clouds: overcast cloud deck at 400 feet AGL
Weather: FG  (fog)

METAR text: OITL 150051Z 08006KT 0900 R15/0900N R33/1500N FG OVC004 M00/M00 Q1014
Conditions at: OITL (ARDABIL , IR) observed 0051 UTC 15 February 2019
Temperature: 0.0°C (32°F)
Dewpoint: 0.0°C (32°F) [RH = 100%]
Pressure (altimeter): 29.94 inches Hg (1014.0 mb)
Winds: from the E (80 degrees) at 7 MPH (6 knots; 3.1 m/s)
Visibility: 0.56 miles (0.90 km)
Ceiling: 400 feet AGL
Clouds: overcast cloud deck at 400 feet AGL
Weather: FG  (fog)

METAR text: OITL 142354Z 12006KT 0700 R15/P2000 R33/0900D FG OVC003 M00/M01 Q1014
Conditions at: OITL (ARDABIL , IR) observed 2354 UTC 14 February 2019
Temperature: 0.0°C (32°F)
Dewpoint: -1.0°C (30°F) [RH = 93%]
Pressure (altimeter): 29.94 inches Hg (1014.0 mb)
Winds: from the ESE (120 degrees) at 7 MPH (6 knots; 3.1 m/s)
Visibility: 0.43 miles (0.69 km)
Ceiling: 300 feet AGL
Clouds: overcast cloud deck at 300 feet AGL
Weather: FG  (fog)

METAR text: OITL 142252Z 35006KT 7000 FEW010 BKN080 M00/M01 Q1014
Conditions at: OITL (ARDABIL , IR) observed 2252 UTC 14 February 2019
Temperature: 0.0°C (32°F)
Dewpoint: -1.0°C (30°F) [RH = 93%]
Pressure (altimeter): 29.94 inches Hg (1014.0 mb)
Winds: from the N (350 degrees) at 7 MPH (6 knots; 3.1 m/s)
Visibility: 4 miles ( 7 km)
Ceiling: 8000 feet AGL
Clouds: few clouds at 1000 feet AGL
broken clouds at 8000 feet AGL
Weather: no significant weather observed at this time

METAR text: OITL 142155Z 08010KT 3000 -RA SCT003 SCT025 OVC070 M01/M01 Q1015
Conditions at: OITL (ARDABIL , IR) observed 2155 UTC 14 February 2019
Temperature: -1.0°C (30°F)
Dewpoint: -1.0°C (30°F) [RH = 100%]
Pressure (altimeter): 29.97 inches Hg (1015.0 mb)
Winds: from the E (80 degrees) at 12 MPH (10 knots; 5.1 m/s)
Visibility: 1.86 miles (2.99 km)
Ceiling: 7000 feet AGL
Clouds: scattered clouds at 300 feet AGL
scattered clouds at 2500 feet AGL
overcast cloud deck at 7000 feet AGL
Weather: -RA  (light rain)

METAR text: OITL 142053Z 08010KT 0100 R15/1300U R33/P2000 FG OVC002 M01/M01 Q1014
Conditions at: OITL (ARDABIL , IR) observed 2053 UTC 14 February 2019
Temperature: -1.0°C (30°F)
Dewpoint: -1.0°C (30°F) [RH = 100%]
Pressure (altimeter): 29.94 inches Hg (1014.0 mb)
Winds: from the E (80 degrees) at 12 MPH (10 knots; 5.1 m/s)
Visibility: 0.06 miles (0.10 km)
Ceiling: 200 feet AGL
Clouds: overcast cloud deck at 200 feet AGL
Weather: FG  (fog)

METAR text: OITL 141951Z 07014KT 0100 R15/0400D R33/0800D FG OVC002 M01/M01 Q1014
Conditions at: OITL (ARDABIL , IR) observed 1951 UTC 14 February 2019
Temperature: -1.0°C (30°F)
Dewpoint: -1.0°C (30°F) [RH = 100%]
Pressure (altimeter): 29.94 inches Hg (1014.0 mb)
Winds: from the ENE (70 degrees) at 16 MPH (14 knots; 7.2 m/s)
Visibility: 0.06 miles (0.10 km)
Ceiling: 200 feet AGL
Clouds: overcast cloud deck at 200 feet AGL
Weather: FG  (fog)

METAR text: OITL 141851Z 07014KT 0100 R15/0400D R33/0800D FG OVC002 M01/M01 Q1014
Conditions at: OITL (ARDABIL , IR) observed 1851 UTC 14 February 2019
Temperature: -1.0°C (30°F)
Dewpoint: -1.0°C (30°F) [RH = 100%]
Pressure (altimeter): 29.94 inches Hg (1014.0 mb)
Winds: from the ENE (70 degrees) at 16 MPH (14 knots; 7.2 m/s)
Visibility: 0.06 miles (0.10 km)
Ceiling: 200 feet AGL
Clouds: overcast cloud deck at 200 feet AGL
Weather: FG  (fog)